createdAt,value
2019-05-30T00:01:13.829Z,18.72
2019-05-30T00:03:40.157Z,18.81
2019-05-30T00:06:06.465Z,18.77
2019-05-30T00:08:32.798Z,18.77
2019-05-30T00:10:59.132Z,18.81
2019-05-30T00:13:25.453Z,18.83
2019-05-30T00:15:51.765Z,18.79
2019-05-30T00:18:18.078Z,18.85
2019-05-30T00:20:44.413Z,18.80
2019-05-30T00:23:11.252Z,18.84
2019-05-30T00:25:37.045Z,18.73
2019-05-30T00:28:05.100Z,18.71
2019-05-30T00:30:29.805Z,18.72
2019-05-30T00:32:57.185Z,18.68
2019-05-30T00:35:22.483Z,18.62
2019-05-30T00:37:48.824Z,18.61
2019-05-30T00:40:15.153Z,18.65
2019-05-30T00:42:41.460Z,18.64
2019-05-30T00:45:19.816Z,18.62
2019-05-30T00:47:34.244Z,18.52
2019-05-30T00:50:00.587Z,18.53
2019-05-30T00:52:26.892Z,18.58
2019-05-30T00:54:53.233Z,18.51
2019-05-30T00:57:19.560Z,18.48
2019-05-30T00:59:45.860Z,18.39
2019-05-30T01:02:12.195Z,18.37
2019-05-30T01:04:38.500Z,18.39
2019-05-30T01:07:05.250Z,18.42
2019-05-30T01:09:31.135Z,18.45
2019-05-30T01:11:57.466Z,18.42
2019-05-30T01:14:23.775Z,18.44
2019-05-30T01:16:50.084Z,18.41
2019-05-30T01:19:16.415Z,18.45
2019-05-30T01:21:42.718Z,18.50
2019-05-30T01:24:09.037Z,18.41
2019-05-30T01:26:35.344Z,18.29
2019-05-30T01:29:01.667Z,18.26
2019-05-30T01:31:27.977Z,18.29
2019-05-30T01:33:54.307Z,18.30
2019-05-30T01:36:20.636Z,18.26
2019-05-30T01:38:46.940Z,18.23
2019-05-30T01:41:13.268Z,18.18
2019-05-30T01:43:39.569Z,18.22
2019-05-30T01:46:06.204Z,18.22
2019-05-30T01:48:32.215Z,18.15
2019-05-30T01:50:58.522Z,18.17
2019-05-30T01:53:24.850Z,18.14
2019-05-30T01:55:51.177Z,18.16
2019-05-30T01:58:17.504Z,18.17
2019-05-30T02:00:43.810Z,18.10
2019-05-30T02:03:10.121Z,18.12
2019-05-30T02:05:36.453Z,18.18
2019-05-30T02:08:03.132Z,18.24
2019-05-30T02:10:29.089Z,18.26
2019-05-30T02:12:55.402Z,18.29
2019-05-30T02:15:21.717Z,18.31
2019-05-30T02:17:48.049Z,18.22
2019-05-30T02:20:14.352Z,18.14
2019-05-30T02:22:40.685Z,18.17
2019-05-30T02:25:08.102Z,18.08
2019-05-30T02:27:33.334Z,18.03
2019-05-30T02:30:00.199Z,18.02
2019-05-30T02:32:25.997Z,18.07
2019-05-30T02:34:52.323Z,18.10
2019-05-30T02:37:18.633Z,18.08
2019-05-30T02:39:44.956Z,18.11
2019-05-30T02:42:11.677Z,18.11
2019-05-30T02:44:37.626Z,18.26
2019-05-30T02:47:05.448Z,18.34
2019-05-30T02:49:30.251Z,18.19
2019-05-30T02:51:56.566Z,18.11
2019-05-30T02:54:22.870Z,18.05
2019-05-30T02:56:49.217Z,18.11
2019-05-30T02:59:15.513Z,18.09
2019-05-30T03:01:58.872Z,17.92
2019-05-30T03:04:08.745Z,17.80
2019-05-30T03:06:34.485Z,17.78
2019-05-30T03:09:01.857Z,17.93
2019-05-30T03:11:27.124Z,17.89
2019-05-30T03:13:53.431Z,17.91
2019-05-30T03:16:19.764Z,18.05
2019-05-30T03:18:46.073Z,18.24
2019-05-30T03:21:13.458Z,18.34
2019-05-30T03:23:38.734Z,18.32
2019-05-30T03:26:07.072Z,18.27
2019-05-30T03:28:31.332Z,18.20
2019-05-30T03:30:57.689Z,18.16
2019-05-30T03:33:38.166Z,17.98
2019-05-30T03:35:50.296Z,17.91
2019-05-30T03:38:16.618Z,17.78
2019-05-30T03:40:42.934Z,17.76
2019-05-30T03:43:11.271Z,17.76
2019-05-30T03:45:35.599Z,17.84
2019-05-30T03:48:01.902Z,17.86
2019-05-30T03:50:28.242Z,17.85
2019-05-30T03:52:54.576Z,17.85
2019-05-30T03:55:20.878Z,17.91
2019-05-30T03:57:47.198Z,17.86
2019-05-30T04:00:15.887Z,17.84
2019-05-30T04:02:56.010Z,17.86
2019-05-30T04:05:06.730Z,17.81
2019-05-30T04:07:32.477Z,17.86
2019-05-30T04:09:58.790Z,17.93
2019-05-30T04:12:25.104Z,18.14
2019-05-30T04:14:51.435Z,18.28
2019-05-30T04:17:19.540Z,18.31
2019-05-30T04:19:44.077Z,18.34
2019-05-30T04:22:11.548Z,18.41
2019-05-30T04:24:36.711Z,18.58
2019-05-30T04:27:03.048Z,18.68
2019-05-30T04:29:29.348Z,18.90
2019-05-30T04:31:55.675Z,19.01
2019-05-30T04:34:22.002Z,19.04
2019-05-30T04:36:52.960Z,19.06
2019-05-30T04:39:15.134Z,19.26
2019-05-30T04:41:40.935Z,19.38
2019-05-30T04:44:07.269Z,19.54
2019-05-30T04:46:33.573Z,19.70
2019-05-30T04:48:59.898Z,19.89
2019-05-30T04:51:26.241Z,20.02
2019-05-30T04:53:52.561Z,20.10
2019-05-30T04:56:19.816Z,20.26
2019-05-30T04:58:45.206Z,20.39
2019-05-30T05:01:12.927Z,20.46
2019-05-30T05:03:45.616Z,20.55
2019-05-30T05:06:04.176Z,20.78
2019-05-30T05:08:30.480Z,21.13
2019-05-30T05:10:56.814Z,21.58
2019-05-30T05:13:23.178Z,21.96
2019-05-30T05:15:49.528Z,22.10
2019-05-30T05:18:16.943Z,22.21
2019-05-30T05:20:42.159Z,22.18
2019-05-30T05:23:08.490Z,22.49
2019-05-30T05:25:34.803Z,22.88
2019-05-30T05:28:01.135Z,23.28
2019-05-30T05:30:27.464Z,25.04
2019-05-30T05:32:53.760Z,26.65
2019-05-30T05:35:20.907Z,27.34
2019-05-30T05:37:46.404Z,27.58
2019-05-30T05:40:12.723Z,27.06
2019-05-30T05:42:39.057Z,25.81
2019-05-30T05:45:05.372Z,25.56
2019-05-30T05:47:31.698Z,26.37
2019-05-30T05:49:58.033Z,27.30
2019-05-30T05:52:24.872Z,27.93
2019-05-30T05:54:50.671Z,28.75
2019-05-30T05:57:16.963Z,29.12
2019-05-30T05:59:43.297Z,28.25
2019-05-30T06:02:09.619Z,28.12
2019-05-30T06:04:35.947Z,27.83
2019-05-30T06:07:02.300Z,27.80
2019-05-30T06:09:28.806Z,28.54
2019-05-30T06:11:54.967Z,28.42
2019-05-30T06:14:21.896Z,27.61
2019-05-30T06:16:47.664Z,27.60
2019-05-30T06:19:13.969Z,28.22
2019-05-30T06:21:53.049Z,27.98
2019-05-30T06:24:06.612Z,28.70
2019-05-30T06:26:32.945Z,29.13
2019-05-30T06:28:59.281Z,29.45
2019-05-30T06:31:26.584Z,29.22
2019-05-30T06:33:51.919Z,28.73
2019-05-30T06:36:18.840Z,28.44
2019-05-30T06:38:44.560Z,27.66
2019-05-30T06:41:10.871Z,27.68
2019-05-30T06:43:37.199Z,27.77
2019-05-30T06:46:03.510Z,27.95
2019-05-30T06:48:30.887Z,28.27
2019-05-30T06:50:56.147Z,28.24
2019-05-30T06:53:23.251Z,27.56
2019-05-30T06:55:48.789Z,27.78
2019-05-30T06:58:15.113Z,28.47
2019-05-30T07:00:41.438Z,27.73
2019-05-30T07:03:07.794Z,27.95
2019-05-30T07:05:34.889Z,28.42
2019-05-30T07:08:00.388Z,28.21
2019-05-30T07:10:26.854Z,28.28
2019-05-30T07:12:53.021Z,27.89
2019-05-30T07:15:19.365Z,28.53
2019-05-30T07:17:45.679Z,28.67
2019-05-30T07:20:12.062Z,29.10
2019-05-30T07:22:38.367Z,28.99
2019-05-30T07:25:04.690Z,28.51
2019-05-30T07:27:32.010Z,28.59
2019-05-30T07:29:57.332Z,28.02
2019-05-30T07:32:24.044Z,27.86
2019-05-30T07:35:03.430Z,28.20
2019-05-30T07:37:16.478Z,27.86
2019-05-30T07:39:42.783Z,28.05
2019-05-30T07:42:09.153Z,28.48
2019-05-30T07:44:35.514Z,28.80
2019-05-30T07:47:01.826Z,27.69
2019-05-30T07:49:28.296Z,27.03
2019-05-30T07:51:54.543Z,27.60
2019-05-30T07:54:20.878Z,28.17
2019-05-30T07:56:47.213Z,27.12
2019-05-30T07:59:13.921Z,26.18
2019-05-30T08:01:40.241Z,26.22
2019-05-30T08:04:06.568Z,27.89
2019-05-30T08:06:33.865Z,28.59
2019-05-30T08:08:59.224Z,28.71
2019-05-30T08:11:26.685Z,29.05
2019-05-30T08:13:51.865Z,29.75
2019-05-30T08:16:18.177Z,29.40
2019-05-30T08:18:44.514Z,28.91
2019-05-30T08:21:10.819Z,28.70
2019-05-30T08:23:38.309Z,28.96
2019-05-30T08:26:03.475Z,28.36
2019-05-30T08:28:30.298Z,26.51
2019-05-30T08:30:56.943Z,27.69
2019-05-30T08:33:22.422Z,28.88
2019-05-30T08:35:50.224Z,29.23
2019-05-30T08:38:15.063Z,29.25
2019-05-30T08:40:41.396Z,27.61
2019-05-30T08:43:07.702Z,26.47
2019-05-30T08:45:34.009Z,25.71
2019-05-30T08:48:00.417Z,26.93
2019-05-30T08:50:26.718Z,26.36
2019-05-30T08:52:53.048Z,27.53
2019-05-30T08:55:19.434Z,28.68
2019-05-30T08:57:45.746Z,28.98
2019-05-30T09:00:12.070Z,29.61
2019-05-30T09:02:38.819Z,30.19
2019-05-30T09:05:06.882Z,30.44
2019-05-30T09:07:31.799Z,29.81
2019-05-30T09:09:57.330Z,30.32
2019-05-30T09:12:23.669Z,30.96
2019-05-30T09:14:49.973Z,30.08
2019-05-30T09:17:16.320Z,30.68
2019-05-30T09:19:43.195Z,30.91
2019-05-30T09:22:08.960Z,29.42
2019-05-30T09:24:35.316Z,27.69
2019-05-30T09:27:01.598Z,26.32
2019-05-30T09:29:27.921Z,25.78
2019-05-30T09:31:54.226Z,27.74
2019-05-30T09:34:20.538Z,27.96
2019-05-30T09:36:46.973Z,28.47
2019-05-30T09:39:13.177Z,29.14
2019-05-30T09:41:40.976Z,29.03
2019-05-30T09:44:05.847Z,27.92
2019-05-30T09:46:32.150Z,27.10
2019-05-30T09:48:58.475Z,26.09
2019-05-30T09:51:24.785Z,25.70
2019-05-30T09:53:51.298Z,25.48
2019-05-30T09:56:17.605Z,25.49
2019-05-30T09:58:44.063Z,27.46
2019-05-30T10:01:10.245Z,28.40
2019-05-30T10:03:36.563Z,28.37
2019-05-30T10:06:02.934Z,27.88
2019-05-30T10:08:29.245Z,26.72
2019-05-30T10:10:55.675Z,26.85
2019-05-30T10:13:21.986Z,26.41
2019-05-30T10:15:48.596Z,25.90
2019-05-30T10:18:14.656Z,25.76
2019-05-30T10:20:40.984Z,25.51
2019-05-30T10:23:07.314Z,25.76
2019-05-30T10:25:33.614Z,25.98
2019-05-30T10:27:59.949Z,25.70
2019-05-30T10:30:26.253Z,25.76
2019-05-30T10:32:53.628Z,25.73
2019-05-30T10:35:18.891Z,25.61
2019-05-30T10:37:45.793Z,25.71
2019-05-30T10:40:11.519Z,25.87
2019-05-30T10:42:37.836Z,25.57
2019-05-30T10:45:04.273Z,25.29
2019-05-30T10:47:30.746Z,25.09
2019-05-30T10:49:57.730Z,24.87
2019-05-30T10:52:23.419Z,24.90
2019-05-30T10:54:49.709Z,24.87
2019-05-30T10:57:16.034Z,25.42
2019-05-30T10:59:42.347Z,26.52
2019-05-30T11:02:08.665Z,27.12
2019-05-30T11:04:34.995Z,27.21
2019-05-30T11:07:11.046Z,26.72
2019-05-30T11:09:27.656Z,26.37
2019-05-30T11:11:54.976Z,27.07
2019-05-30T11:14:20.290Z,26.87
2019-05-30T11:16:47.067Z,26.44
2019-05-30T11:19:12.928Z,26.13
2019-05-30T11:21:39.256Z,25.74
2019-05-30T11:24:05.565Z,25.54
2019-05-30T11:26:31.928Z,25.38
2019-05-30T11:28:58.831Z,25.24
2019-05-30T11:31:24.562Z,25.07
2019-05-30T11:33:50.873Z,25.01
2019-05-30T11:36:17.208Z,25.02
2019-05-30T11:38:43.512Z,25.08
2019-05-30T11:41:09.881Z,25.10
2019-05-30T11:43:36.184Z,25.18
2019-05-30T11:46:02.488Z,25.24
2019-05-30T11:48:28.813Z,25.07
2019-05-30T11:50:55.768Z,25.02
2019-05-30T11:53:21.461Z,25.00
2019-05-30T11:55:47.830Z,25.05
2019-05-30T11:58:18.948Z,24.99
2019-05-30T12:00:40.445Z,24.99
2019-05-30T12:03:06.750Z,24.99
2019-05-30T12:05:33.098Z,25.09
2019-05-30T12:07:59.400Z,25.11
2019-05-30T12:10:25.709Z,25.03
2019-05-30T12:12:53.218Z,25.18
2019-05-30T12:15:18.353Z,25.21
2019-05-30T12:17:44.686Z,25.17
2019-05-30T12:20:11.012Z,25.13
2019-05-30T12:22:37.316Z,25.05
2019-05-30T12:25:03.649Z,25.14
2019-05-30T12:27:30.008Z,25.42
2019-05-30T12:29:56.300Z,26.21
2019-05-30T12:32:22.633Z,27.03
2019-05-30T12:34:48.945Z,27.21
2019-05-30T12:37:15.246Z,26.84
2019-05-30T12:39:41.555Z,26.81
2019-05-30T12:42:07.903Z,26.76
2019-05-30T12:44:34.214Z,26.64
2019-05-30T12:47:01.352Z,26.77
2019-05-30T12:49:26.853Z,27.07
2019-05-30T12:51:54.115Z,27.02
2019-05-30T12:54:19.488Z,27.07
2019-05-30T12:56:45.819Z,26.76
2019-05-30T12:59:12.156Z,26.60
2019-05-30T13:01:38.468Z,26.41
2019-05-30T13:04:04.799Z,26.13
2019-05-30T13:06:31.099Z,25.96
2019-05-30T13:08:57.478Z,25.83
2019-05-30T13:11:23.781Z,25.55
2019-05-30T13:13:50.143Z,25.27
2019-05-30T13:16:16.449Z,25.24
2019-05-30T13:18:42.768Z,25.32
2019-05-30T13:21:09.100Z,25.36
2019-05-30T13:23:35.458Z,25.32
2019-05-30T13:26:01.971Z,25.25
2019-05-30T13:28:28.080Z,25.14
2019-05-30T13:30:54.395Z,24.93
2019-05-30T13:33:20.713Z,24.90
2019-05-30T13:35:47.020Z,25.00
2019-05-30T13:38:25.747Z,25.09
2019-05-30T13:40:39.663Z,25.18
2019-05-30T13:43:06.193Z,25.17
2019-05-30T13:45:32.306Z,25.25
2019-05-30T13:47:58.628Z,25.29
2019-05-30T13:50:24.962Z,25.27
2019-05-30T13:52:51.259Z,25.06
2019-05-30T13:55:17.605Z,25.04
2019-05-30T13:57:43.947Z,25.02
2019-05-30T14:00:10.738Z,25.04
2019-05-30T14:02:36.627Z,25.05
2019-05-30T14:05:03.980Z,25.14
2019-05-30T14:07:29.243Z,25.18
2019-05-30T14:09:55.578Z,25.28
2019-05-30T14:12:21.888Z,25.09
2019-05-30T14:14:48.238Z,25.26
2019-05-30T14:17:14.568Z,25.52
2019-05-30T14:19:40.868Z,25.57
2019-05-30T14:22:07.269Z,25.58
2019-05-30T14:24:33.509Z,25.50
2019-05-30T14:26:59.853Z,25.49
2019-05-30T14:29:28.055Z,25.41
2019-05-30T14:31:52.488Z,25.41
2019-05-30T14:34:18.795Z,25.14
2019-05-30T14:36:45.128Z,24.87
2019-05-30T14:39:11.457Z,24.75
2019-05-30T14:41:37.757Z,24.72
2019-05-30T14:44:05.080Z,24.71
2019-05-30T14:46:30.432Z,24.78
2019-05-30T14:48:56.730Z,24.83
2019-05-30T14:51:23.056Z,24.87
2019-05-30T14:53:49.361Z,24.88
2019-05-30T14:56:15.675Z,24.92
2019-05-30T14:58:42.004Z,24.91
2019-05-30T15:01:09.365Z,24.90
2019-05-30T15:03:34.651Z,24.93
2019-05-30T15:06:00.963Z,24.88
2019-05-30T15:08:27.318Z,24.88
2019-05-30T15:10:53.630Z,24.79
2019-05-30T15:13:19.968Z,24.69
2019-05-30T15:15:46.288Z,24.65
2019-05-30T15:18:13.319Z,24.64
2019-05-30T15:20:38.967Z,24.68
2019-05-30T15:23:05.520Z,24.73
2019-05-30T15:25:31.601Z,24.70
2019-05-30T15:27:57.901Z,24.67
2019-05-30T15:30:24.239Z,24.60
2019-05-30T15:32:50.552Z,24.61
2019-05-30T15:35:19.035Z,24.61
2019-05-30T15:37:43.245Z,24.55
2019-05-30T15:40:10.826Z,24.58
2019-05-30T15:42:35.872Z,24.63
2019-05-30T15:45:02.184Z,24.66
2019-05-30T15:47:28.519Z,24.67
2019-05-30T15:49:54.865Z,24.58
2019-05-30T15:52:21.191Z,24.46
2019-05-30T15:54:47.520Z,24.37
2019-05-30T15:57:13.827Z,24.27
2019-05-30T15:59:40.154Z,24.15
2019-05-30T16:02:06.465Z,24.07
2019-05-30T16:04:32.774Z,23.96
2019-05-30T16:06:59.146Z,23.96
2019-05-30T16:09:25.460Z,24.01
2019-05-30T16:11:51.788Z,23.98
2019-05-30T16:14:19.342Z,23.94
2019-05-30T16:16:44.441Z,23.95
2019-05-30T16:19:19.345Z,24.00
2019-05-30T16:21:37.071Z,23.98
2019-05-30T16:24:03.495Z,23.97
2019-05-30T16:26:29.816Z,23.99
2019-05-30T16:28:56.144Z,24.00
2019-05-30T16:31:22.475Z,24.02
2019-05-30T16:33:48.778Z,24.04
2019-05-30T16:36:16.078Z,23.97
2019-05-30T16:38:41.517Z,23.88
2019-05-30T16:41:07.911Z,23.82
2019-05-30T16:43:34.187Z,23.75
2019-05-30T16:46:00.512Z,23.70
2019-05-30T16:48:26.819Z,23.66
2019-05-30T16:50:53.147Z,23.62
2019-05-30T16:53:23.043Z,23.56
2019-05-30T16:55:45.810Z,23.48
2019-05-30T16:58:12.195Z,23.40
2019-05-30T17:00:38.501Z,23.31
2019-05-30T17:03:04.836Z,23.26
2019-05-30T17:05:32.300Z,23.17
2019-05-30T17:07:57.477Z,23.08
2019-05-30T17:10:32.253Z,22.95
2019-05-30T17:12:50.109Z,22.91
2019-05-30T17:15:17.676Z,22.84
2019-05-30T17:17:42.731Z,22.75
2019-05-30T17:20:09.156Z,22.65
2019-05-30T17:22:35.443Z,22.61
2019-05-30T17:25:02.062Z,22.56
2019-05-30T17:27:28.207Z,22.48
2019-05-30T17:29:54.521Z,22.45
2019-05-30T17:32:21.775Z,22.38
2019-05-30T17:34:47.188Z,22.30
2019-05-30T17:37:13.481Z,22.21
2019-05-30T17:39:39.811Z,22.15
2019-05-30T17:42:07.355Z,22.06
2019-05-30T17:44:32.483Z,22.02
2019-05-30T17:46:58.824Z,21.96
2019-05-30T17:49:25.833Z,21.92
2019-05-30T17:51:51.469Z,21.83
2019-05-30T17:54:17.780Z,21.74
2019-05-30T17:56:44.116Z,21.65
2019-05-30T17:59:10.415Z,21.60
2019-05-30T18:01:36.738Z,21.53
2019-05-30T18:04:03.043Z,21.44
2019-05-30T18:06:29.369Z,21.38
2019-05-30T18:08:55.687Z,21.33
2019-05-30T18:11:22.827Z,21.27
2019-05-30T18:13:48.408Z,21.20
2019-05-30T18:16:14.765Z,21.14
2019-05-30T18:18:41.096Z,21.07
2019-05-30T18:21:07.402Z,21.02
2019-05-30T18:23:33.726Z,20.96
2019-05-30T18:26:00.041Z,20.89
2019-05-30T18:28:26.375Z,20.83
2019-05-30T18:30:52.696Z,20.77
2019-05-30T18:33:19.007Z,20.70
2019-05-30T18:35:45.358Z,20.66
2019-05-30T18:38:11.648Z,20.60
2019-05-30T18:40:37.958Z,20.57
2019-05-30T18:43:04.333Z,20.53
2019-05-30T18:45:31.041Z,20.44
2019-05-30T18:47:56.965Z,20.35
2019-05-30T18:50:23.296Z,20.31
2019-05-30T18:52:49.598Z,20.26
2019-05-30T18:55:15.952Z,20.22
2019-05-30T18:57:42.301Z,20.16
2019-05-30T19:00:08.907Z,20.14
2019-05-30T19:02:35.651Z,20.15
2019-05-30T19:05:01.350Z,20.13
2019-05-30T19:07:28.696Z,20.10
2019-05-30T19:09:54.326Z,20.13
2019-05-30T19:12:23.979Z,20.11
2019-05-30T19:14:47.020Z,20.08
2019-05-30T19:17:13.363Z,20.04
2019-05-30T19:19:42.710Z,20.03
2019-05-30T19:22:09.041Z,20.00
2019-05-30T19:24:35.367Z,19.97
2019-05-30T19:27:01.674Z,19.89
2019-05-30T19:29:28.961Z,19.85
2019-05-30T19:31:54.356Z,19.77
2019-05-30T19:34:20.678Z,19.73
2019-05-30T19:36:47.029Z,19.66
2019-05-30T19:39:13.345Z,19.65
2019-05-30T19:41:53.783Z,19.58
2019-05-30T19:44:06.040Z,19.64
2019-05-30T19:46:32.372Z,19.61
2019-05-30T19:48:58.696Z,19.56
2019-05-30T19:51:24.997Z,19.50
2019-05-30T19:53:51.369Z,19.47
2019-05-30T19:56:17.653Z,19.44
2019-05-30T19:58:43.976Z,19.41
2019-05-30T20:01:10.313Z,19.39
2019-05-30T20:03:44.780Z,19.39
2019-05-30T20:06:02.945Z,19.37
2019-05-30T20:08:44.844Z,19.29
2019-05-30T20:10:55.591Z,19.29
2019-05-30T20:13:21.918Z,19.25
2019-05-30T20:15:48.226Z,19.18
2019-05-30T20:18:14.546Z,19.15
2019-05-30T20:20:55.414Z,19.14
2019-05-30T20:23:07.205Z,19.16
2019-05-30T20:25:34.424Z,19.11
2019-05-30T20:27:59.844Z,19.08
2019-05-30T20:30:26.170Z,19.01
2019-05-30T20:32:52.479Z,18.99
2019-05-30T20:35:18.811Z,18.92
2019-05-30T20:37:45.118Z,18.95
2019-05-30T20:40:11.454Z,18.91
2019-05-30T20:42:38.882Z,19.01
2019-05-30T20:45:05.758Z,19.08
2019-05-30T20:47:30.435Z,19.16
2019-05-30T20:49:56.741Z,19.16
2019-05-30T20:52:23.074Z,19.22
2019-05-30T20:54:49.378Z,19.10
2019-05-30T20:57:15.707Z,19.12
2019-05-30T20:59:42.704Z,18.78
2019-05-30T21:02:08.339Z,18.58
2019-05-30T21:04:34.698Z,18.55
2019-05-30T21:07:01.010Z,18.53
2019-05-30T21:09:29.222Z,18.41
2019-05-30T21:11:53.622Z,18.35
2019-05-30T21:14:19.953Z,18.33
2019-05-30T21:16:46.286Z,18.36
2019-05-30T21:19:12.609Z,18.26
2019-05-30T21:21:39.947Z,18.21
2019-05-30T21:24:05.248Z,18.18
2019-05-30T21:26:31.552Z,18.16
2019-05-30T21:28:57.879Z,18.10
2019-05-30T21:31:24.184Z,18.09
2019-05-30T21:33:50.656Z,18.10
2019-05-30T21:36:16.948Z,18.05
2019-05-30T21:38:43.944Z,17.98
2019-05-30T21:41:09.597Z,17.93
2019-05-30T21:43:35.888Z,17.93
2019-05-30T21:46:02.215Z,17.85
2019-05-30T21:48:28.518Z,17.89
2019-05-30T21:50:54.867Z,17.88
2019-05-30T21:53:21.170Z,17.85
2019-05-30T21:55:48.049Z,17.73
2019-05-30T21:58:13.821Z,17.79
2019-05-30T22:00:40.243Z,17.78
2019-05-30T22:03:06.460Z,17.78
2019-05-30T22:05:32.782Z,17.77
2019-05-30T22:07:59.126Z,17.79
2019-05-30T22:10:25.460Z,17.72
2019-05-30T22:12:51.924Z,17.78
2019-05-30T22:15:18.107Z,17.77
2019-05-30T22:17:45.653Z,17.86
2019-05-30T22:20:10.788Z,17.97
2019-05-30T22:22:37.110Z,18.05
2019-05-30T22:25:03.426Z,17.97
2019-05-30T22:27:29.751Z,17.91
2019-05-30T22:29:56.076Z,17.86
2019-05-30T22:32:22.393Z,17.86
2019-05-30T22:34:48.814Z,17.91
2019-05-30T22:37:15.034Z,17.99
2019-05-30T22:39:42.672Z,18.06
2019-05-30T22:42:07.768Z,17.96
2019-05-30T22:44:34.109Z,17.96
2019-05-30T22:47:00.440Z,18.07
2019-05-30T22:49:26.925Z,17.99
2019-05-30T22:51:55.391Z,17.92
2019-05-30T22:54:19.554Z,17.91
2019-05-30T22:56:45.903Z,17.85
2019-05-30T22:59:12.287Z,17.78
2019-05-30T23:01:38.552Z,17.76
2019-05-30T23:04:04.868Z,17.72
2019-05-30T23:06:31.201Z,17.71
2019-05-30T23:08:57.533Z,17.68
2019-05-30T23:11:23.869Z,17.64
2019-05-30T23:13:50.206Z,17.71
2019-05-30T23:16:16.515Z,17.72
2019-05-30T23:18:42.818Z,17.67
2019-05-30T23:21:09.268Z,17.66
2019-05-30T23:23:35.598Z,17.64
2019-05-30T23:26:01.920Z,17.61
2019-05-30T23:28:28.247Z,17.58
2019-05-30T23:30:54.550Z,17.57
2019-05-30T23:33:20.887Z,17.64
2019-05-30T23:35:48.113Z,17.57
2019-05-30T23:38:13.507Z,17.51
2019-05-30T23:40:39.928Z,17.47
2019-05-30T23:43:06.388Z,17.54
2019-05-30T23:45:32.711Z,17.47
2019-05-30T23:47:59.786Z,17.38
2019-05-30T23:50:25.357Z,17.36
2019-05-30T23:52:52.067Z,17.33
2019-05-30T23:55:17.986Z,17.33
2019-05-30T23:57:44.356Z,17.35
